Time,TemperatureF,DewpointF,PressureIn,WindDirection,WindDirectionDegrees,WindSpeedMPH,WindSpeedGustMPH,Humidity,HourlyPrecipIn,Conditions,Clouds,dailyrainin,SoftwareType,DateUTC
2013-03-03 00:00:00,27.2,21.0,29.99,NNE,28,0.0,2.0,77,0.00,,---,0.06,VWS V12.07,2013-03-03 05:00:00,
2013-03-03 00:30:00,26.6,20.1,29.99,NNE,29,1.0,2.0,76,0.00,,---,0.00,VWS V12.07,2013-03-03 05:30:00,
2013-03-03 01:00:00,26.3,20.1,29.99,NW,324,0.0,3.0,77,0.00,,---,0.00,VWS V12.07,2013-03-03 06:00:00,
2013-03-03 01:30:00,26.3,20.1,30.00,NNE,30,2.0,7.0,77,0.00,,---,0.00,VWS V12.07,2013-03-03 06:30:00,
2013-03-03 02:00:00,26.1,19.9,29.99,NNE,30,0.0,2.0,77,0.00,,---,0.00,VWS V12.07,2013-03-03 07:00:00,
2013-03-03 02:30:00,25.7,19.5,29.98,North,5,0.0,1.0,77,0.00,,---,0.00,VWS V12.07,2013-03-03 07:30:00,
2013-03-03 03:00:00,26.0,20.4,29.98,NNW,344,0.0,5.0,79,0.00,,---,0.00,VWS V12.07,2013-03-03 08:00:00,
2013-03-03 03:30:00,26.0,20.7,29.98,NNE,28,0.0,4.0,80,0.00,,---,0.00,VWS V12.07,2013-03-03 08:30:00,
2013-03-03 04:00:00,25.4,18.9,29.98,NNE,21,2.0,3.0,76,0.00,,---,0.00,VWS V12.07,2013-03-03 09:00:00,
2013-03-03 04:30:00,25.6,18.8,29.98,North,11,1.0,4.0,75,0.00,,---,0.00,VWS V12.07,2013-03-03 09:30:00,
2013-03-03 05:00:00,25.4,19.2,29.98,North,360,0.0,3.0,77,0.00,,---,0.00,VWS V12.07,2013-03-03 10:00:00,
2013-03-03 05:30:00,25.3,19.7,29.98,NNE,14,0.0,4.0,79,0.00,,---,0.00,VWS V12.07,2013-03-03 10:30:00,
2013-03-03 06:00:00,24.8,19.5,29.98,NNE,19,1.0,3.0,80,0.00,,---,0.00,VWS V12.07,2013-03-03 11:00:00,
2013-03-03 06:30:00,24.5,18.6,29.99,North,355,0.0,5.0,78,0.00,,---,0.00,VWS V12.07,2013-03-03 11:30:00,
2013-03-03 07:00:00,24.1,19.1,29.99,North,360,1.0,3.0,81,0.00,,---,0.00,VWS V12.07,2013-03-03 12:00:00,
2013-03-03 07:30:00,23.8,18.8,30.00,NE,34,0.0,4.0,81,0.00,,---,0.00,VWS V12.07,2013-03-03 12:30:00,
2013-03-03 08:00:00,23.9,18.9,30.00,NNE,19,0.0,1.0,81,0.00,,---,0.00,VWS V12.07,2013-03-03 13:00:00,
2013-03-03 08:30:00,24.1,17.0,30.01,NE,34,0.0,1.0,74,0.00,,---,0.00,VWS V12.07,2013-03-03 13:30:00,
2013-03-03 09:00:00,23.6,15.6,30.01,NE,34,2.0,2.0,71,0.00,,---,0.00,VWS V12.07,2013-03-03 14:00:00,
2013-03-03 09:30:00,26.9,15.6,30.01,NNE,14,3.0,4.0,62,0.00,,---,0.00,VWS V12.07,2013-03-03 14:30:00,
2013-03-03 10:00:00,29.1,15.4,30.00,NNE,15,3.0,4.0,56,0.00,,---,0.00,VWS V12.07,2013-03-03 15:00:00,
2013-03-03 10:30:00,29.3,15.6,30.00,NNE,12,1.0,7.0,56,0.00,,---,0.00,VWS V12.07,2013-03-03 15:30:00,
2013-03-03 11:00:00,29.8,15.6,30.00,North,360,1.0,9.0,55,0.00,,---,0.00,VWS V12.07,2013-03-03 16:00:00,
2013-03-03 11:30:00,30.6,16.8,30.00,NNE,22,6.0,14.0,56,0.00,,---,0.00,VWS V12.07,2013-03-03 16:30:00,
2013-03-03 12:00:00,31.6,18.1,30.00,NE,40,4.0,10.0,57,0.00,,---,0.00,VWS V12.07,2013-03-03 17:00:00,
2013-03-03 12:30:00,31.9,18.0,30.00,North,5,2.0,6.0,56,0.00,,---,0.00,VWS V12.07,2013-03-03 17:30:00,
2013-03-03 13:00:00,32.2,18.7,30.00,NNE,24,2.0,12.0,57,0.00,,---,0.00,VWS V12.07,2013-03-03 18:00:00,
2013-03-03 13:30:00,32.1,20.6,30.00,NNE,25,2.0,8.0,62,0.00,,---,0.00,VWS V12.07,2013-03-03 18:30:00,
2013-03-03 14:00:00,32.5,19.0,29.99,NNE,12,4.0,5.0,57,0.00,,---,0.00,VWS V12.07,2013-03-03 19:00:00,
2013-03-03 14:30:00,33.1,19.1,29.99,NNE,28,1.0,12.0,56,0.00,,---,0.00,VWS V12.07,2013-03-03 19:30:00,
2013-03-03 15:00:00,32.5,18.6,29.99,NNW,327,6.0,12.0,56,0.00,,---,0.00,VWS V12.07,2013-03-03 20:00:00,
2013-03-03 15:30:00,34.0,17.8,30.00,North,9,3.0,13.0,51,0.00,,---,0.00,VWS V12.07,2013-03-03 20:30:00,
2013-03-03 16:00:00,34.4,17.7,30.00,North,5,1.0,7.0,50,0.00,,---,0.00,VWS V12.07,2013-03-03 21:00:00,
2013-03-03 16:30:00,32.5,17.3,30.00,North,5,3.0,6.0,53,0.00,,---,0.00,VWS V12.07,2013-03-03 21:30:00,
2013-03-03 17:00:00,31.3,16.6,30.00,NNE,32,4.0,5.0,54,0.00,,---,0.00,VWS V12.07,2013-03-03 22:00:00,
2013-03-03 17:30:00,31.5,17.2,30.01,ENE,61,0.0,9.0,55,0.00,,---,0.00,VWS V12.07,2013-03-03 22:30:00,
2013-03-03 18:00:00,30.1,17.1,30.02,NW,315,3.0,5.0,58,0.00,,---,0.00,VWS V12.07,2013-03-03 23:00:00,
2013-03-03 18:30:00,29.4,17.2,30.03,WSW,257,5.0,6.0,60,0.00,,---,0.00,VWS V12.07,2013-03-03 23:30:00,
2013-03-03 19:00:00,28.5,17.1,30.04,NNE,22,0.0,2.0,62,0.00,,---,0.00,VWS V12.07,2013-03-04 00:00:00,
2013-03-03 19:30:00,27.6,16.7,30.06,NNE,22,1.0,4.0,63,0.00,,---,0.00,VWS V12.07,2013-03-04 00:30:00,
2013-03-03 20:00:00,27.5,16.9,30.06,North,10,0.0,1.0,64,0.00,,---,0.00,VWS V12.07,2013-03-04 01:00:00,
2013-03-03 20:30:00,26.9,16.7,30.06,North,360,0.0,0.0,65,0.00,,---,0.00,VWS V12.07,2013-03-04 01:30:00,
2013-03-03 21:00:00,25.7,17.3,30.07,North,360,0.0,0.0,70,0.00,,---,0.00,VWS V12.07,2013-03-04 02:00:00,
2013-03-03 21:30:00,25.1,17.7,30.06,ENE,57,1.0,2.0,73,0.00,,---,0.00,VWS V12.07,2013-03-04 02:30:00,
2013-03-03 22:00:00,24.8,17.7,30.06,NNW,340,0.0,0.0,74,0.00,,---,0.00,VWS V12.07,2013-03-04 03:00:00,
2013-03-03 22:30:00,24.2,17.4,30.06,NNW,340,0.0,0.0,75,0.00,,---,0.00,VWS V12.07,2013-03-04 03:30:00,
2013-03-03 23:00:00,23.9,17.8,30.06,NNW,340,0.0,0.0,77,0.00,,---,0.00,VWS V12.07,2013-03-04 04:00:00,
2013-03-03 23:30:00,22.9,16.8,30.06,NNW,340,0.0,0.0,77,0.00,,---,0.00,VWS V12.07,2013-03-04 04:30:00,